Time;durP1;ratioP1;P1;durP2;ratioP2;P2;SDS_P1;SDS_P2;PMS_P1;PMS_P2;Temp;Humidity;BMP_temperature;BMP_pressure;BME280_temperature;BME280_humidity;BME280_pressure;Samples;Min_cycle;Max_cycle;Signal;HPM_P1;HPM_P2
2021/03/25 00:01:43;;;;;;;78.47;35.67;;;5.80;99.90;;;;;;12370897;28;20062;-41
2021/03/25 00:07:45;;;;;;;73.17;35.93;;;5.90;99.90;;;;;;12361896;28;21335;-41
2021/03/25 00:13:56;;;;;;;72.15;35.42;;;5.90;99.90;;;;;;12359107;28;20085;-43
2021/03/25 00:19:58;;;;;;;68.25;32.88;;;5.90;99.90;;;;;;12368655;28;20459;-42
2021/03/25 00:25:59;;;;;;;64.70;33.30;;;5.70;99.90;;;;;;12366641;28;21826;-42
2021/03/25 00:32:01;;;;;;;69.80;34.60;;;5.60;99.90;;;;;;12366824;28;20277;-41
2021/03/25 00:38:04;;;;;;;73.53;36.33;;;5.50;99.90;;;;;;12360578;28;20065;-42
2021/03/25 00:44:15;;;;;;;73.68;35.55;;;5.50;99.90;;;;;;12357021;28;20046;-41
2021/03/25 00:50:23;;;;;;;73.07;35.75;;;5.50;99.90;;;;;;12369831;28;20108;-41
2021/03/25 00:56:25;;;;;;;72.95;34.05;;;5.30;99.90;;;;;;12372017;28;20426;-41
2021/03/25 01:02:26;;;;;;;70.40;35.35;;;5.30;99.90;;;;;;12364806;28;20762;-41
2021/03/25 01:08:28;;;;;;;77.28;38.50;;;4.70;99.90;;;;;;12367587;28;20445;-40
2021/03/25 01:14:37;;;;;;;81.97;39.13;;;4.60;99.90;;;;;;12363957;28;20060;-42
2021/03/25 01:20:42;;;;;;;76.13;35.65;;;4.60;99.90;;;;;;12370367;28;20058;-41
2021/03/25 01:26:43;;;;;;;85.18;39.05;;;4.40;99.90;;;;;;12366713;28;20057;-43
2021/03/25 01:32:44;;;;;;;83.00;38.65;;;4.30;99.90;;;;;;12362928;28;20096;-41
2021/03/25 01:38:46;;;;;;;88.93;41.20;;;4.40;99.90;;;;;;12366083;28;20686;-41
2021/03/25 01:44:56;;;;;;;102.88;44.03;;;4.40;99.90;;;;;;12357602;28;20042;-42
2021/03/25 01:51:01;;;;;;;94.57;44.13;;;4.60;99.90;;;;;;12373367;28;20054;-42
2021/03/25 01:57:26;;;;;;;96.60;43.80;;;4.80;99.90;;;;;;12371073;28;20112;-41
2021/03/25 02:03:51;;;;;;;89.88;41.72;;;4.80;99.90;;;;;;12358864;28;20046;-42
2021/03/25 02:09:57;;;;;;;91.00;43.70;;;4.60;99.90;;;;;;12368792;28;20690;-41
2021/03/25 02:16:09;;;;;;;76.95;36.30;;;4.70;99.90;;;;;;12357264;28;20053;-41
2021/03/25 02:22:39;;;;;;;60.20;30.75;;;5.10;99.90;;;;;;12375576;28;20050;-41
2021/03/25 02:29:14;;;;;;;65.72;31.55;;;5.10;99.90;;;;;;12366863;28;20053;-43
2021/03/25 02:35:15;;;;;;;59.78;29.98;;;4.90;99.90;;;;;;12365561;28;20045;-42
2021/03/25 02:41:47;;;;;;;69.40;34.00;;;4.40;99.90;;;;;;12361890;28;20054;-42
2021/03/25 02:47:52;;;;;;;68.80;31.73;;;3.90;99.90;;;;;;12370837;28;20104;-42
2021/03/25 02:53:54;;;;;;;76.90;33.53;;;3.80;99.90;;;;;;12359606;28;20053;-42
2021/03/25 03:00:01;;;;;;;68.10;32.80;;;3.90;99.90;;;;;;12365641;28;20053;-42
2021/03/25 03:06:04;;;;;;;67.25;32.15;;;3.90;99.90;;;;;;12367735;28;20050;-41
2021/03/25 03:12:16;;;;;;;71.13;34.70;;;3.60;99.90;;;;;;12367175;28;20846;-42
2021/03/25 03:18:25;;;;;;;83.78;38.67;;;3.50;99.90;;;;;;12361949;28;20046;-41
2021/03/25 03:24:27;;;;;;;102.15;42.80;;;3.50;99.90;;;;;;12376138;28;20054;-41
2021/03/25 03:30:34;;;;;;;69.60;30.88;;;3.70;99.90;;;;;;12360469;28;20046;-42
2021/03/25 03:36:39;;;;;;;60.67;30.17;;;4.20;99.90;;;;;;12366388;28;20138;-41
2021/03/25 03:42:41;;;;;;;65.95;30.45;;;4.20;99.90;;;;;;12366551;28;20108;-42
2021/03/25 03:48:50;;;;;;;62.28;29.85;;;3.80;99.90;;;;;;12370433;28;20145;-42
2021/03/25 03:54:54;;;;;;;73.88;33.58;;;3.30;99.90;;;;;;12371670;28;20050;-41
2021/03/25 04:01:23;;;;;;;70.18;33.10;;;3.20;99.90;;;;;;12366481;28;20099;-41
2021/03/25 04:07:28;;;;;;;77.28;33.60;;;3.20;99.90;;;;;;12361457;28;20050;-41
2021/03/25 04:13:59;;;;;;;;;;;3.40;99.90;;;;;;12364317;28;20566;-42
2021/03/25 04:20:14;;;;;;;75.65;34.40;;;3.20;99.90;;;;;;12359682;28;19929;-41
2021/03/25 04:26:26;;;;;;;83.32;35.28;;;3.20;99.90;;;;;;12360046;28;20056;-41
2021/03/25 04:32:28;;;;;;;70.60;35.22;;;3.30;99.90;;;;;;12366275;28;20136;-41
2021/03/25 04:38:36;;;;;;;78.30;35.70;;;3.40;99.90;;;;;;12361369;28;20054;-42
2021/03/25 04:44:47;;;;;;;83.28;35.90;;;3.50;99.90;;;;;;12364055;28;20047;-42
2021/03/25 04:50:57;;;;;;;89.00;39.85;;;3.60;99.90;;;;;;12354930;28;20061;-41
2021/03/25 04:57:06;;;;;;;72.65;35.38;;;3.70;99.90;;;;;;12360491;28;20046;-41
2021/03/25 05:03:26;;;;;;;82.40;39.22;;;3.60;99.90;;;;;;12367904;28;20062;-41
2021/03/25 05:09:28;;;;;;;97.38;43.53;;;3.60;99.90;;;;;;12361833;28;20045;-43
2021/03/25 05:15:31;;;;;;;105.30;46.08;;;3.70;99.90;;;;;;12364972;28;20053;-41
2021/03/25 05:21:59;;;;;;;96.05;43.95;;;3.90;99.90;;;;;;12362644;28;20042;-42
2021/03/25 05:28:24;;;;;;;86.50;42.40;;;3.80;99.90;;;;;;12370735;28;20057;-41
2021/03/25 05:34:26;;;;;;;;;;;3.90;99.90;;;;;;12373617;28;20483;-42
2021/03/25 05:40:59;;;;;;;85.65;41.75;;;4.00;99.90;;;;;;12368788;28;20040;-42
2021/03/25 05:47:31;;;;;;;92.90;45.20;;;4.00;99.90;;;;;;12369872;28;20064;-42
2021/03/25 05:54:14;;;;;;;96.45;46.70;;;4.00;99.90;;;;;;12366479;28;20050;-42
2021/03/25 06:00:38;;;;;;;98.78;44.40;;;4.10;99.90;;;;;;12361861;28;20068;-41
2021/03/25 06:06:55;;;;;;;80.33;40.93;;;4.30;99.90;;;;;;12373377;28;20501;-42
2021/03/25 06:13:24;;;;;;;75.53;38.03;;;4.60;99.90;;;;;;12369609;28;20054;-41
2021/03/25 06:20:06;;;;;;;95.57;43.65;;;4.70;99.90;;;;;;12368472;28;20055;-44
2021/03/25 06:26:42;;;;;;;89.80;44.15;;;4.50;99.90;;;;;;12368440;28;20089;-42
2021/03/25 06:33:20;;;;;;;79.05;39.65;;;4.60;99.90;;;;;;12369049;28;20499;-41
2021/03/25 06:39:30;;;;;;;88.05;42.83;;;5.00;99.90;;;;;;12367800;28;20159;-42
2021/03/25 06:45:42;;;;;;;85.15;42.55;;;5.30;99.90;;;;;;12368317;28;20046;-44
2021/03/25 06:51:46;;;;;;;86.10;41.78;;;5.70;99.90;;;;;;12375612;28;20046;-42
2021/03/25 06:58:04;;;;;;;73.38;37.72;;;6.00;99.90;;;;;;12368231;28;20053;-42
2021/03/25 07:04:13;;;;;;;84.40;37.92;;;6.00;99.90;;;;;;12368173;28;20912;-42
2021/03/25 07:10:16;;;;;;;68.55;35.28;;;6.10;99.90;;;;;;12360339;28;20059;-43
2021/03/25 07:16:18;;;;;;;69.53;36.03;;;6.00;99.90;;;;;;12361263;28;20072;-42
2021/03/25 07:22:25;;;;;;;69.18;35.33;;;6.00;99.90;;;;;;12361629;28;20046;-42
2021/03/25 07:28:27;;;;;;;79.18;40.92;;;5.90;99.90;;;;;;12369384;28;20062;-42
2021/03/25 07:34:47;;;;;;;90.82;44.30;;;5.90;99.90;;;;;;12361010;28;20070;-41
2021/03/25 07:41:19;;;;;;;89.15;45.08;;;6.00;99.90;;;;;;12370328;28;20469;-41
2021/03/25 07:47:30;;;;;;;90.68;46.45;;;6.30;99.90;;;;;;12364462;28;20316;-42
2021/03/25 07:53:33;;;;;;;93.93;47.30;;;6.60;99.90;;;;;;12353580;28;20038;-42
2021/03/25 07:59:40;;;;;;;84.50;42.53;;;6.90;99.90;;;;;;12362569;28;20228;-43
2021/03/25 08:05:44;;;;;;;77.07;37.33;;;7.40;99.90;;;;;;12360900;28;20406;-42
2021/03/25 08:11:55;;;;;;;66.25;35.65;;;8.10;99.90;;;;;;12368960;28;20522;-41
2021/03/25 08:18:20;;;;;;;64.47;35.17;;;8.40;99.90;;;;;;12357128;28;20046;-43
2021/03/25 08:24:32;;;;;;;71.57;35.58;;;8.20;99.90;;;;;;12367389;28;20054;-42
2021/03/25 08:30:39;;;;;;;66.15;33.42;;;8.30;99.90;;;;;;12361017;28;20119;-43
2021/03/25 08:37:03;;;;;;;65.55;34.72;;;8.10;99.90;;;;;;12353605;28;20053;-43
2021/03/25 08:43:13;;;;;;;64.53;32.85;;;8.00;99.90;;;;;;12367636;28;20782;-41
2021/03/25 08:49:50;;;;;;;64.10;33.80;;;8.10;99.90;;;;;;12364159;28;20058;-42
2021/03/25 08:55:55;;;;;;;65.97;33.08;;;8.00;99.90;;;;;;12347143;28;20095;-41
2021/03/25 09:02:01;;;;;;;;;;;8.20;99.90;;;;;;12365108;28;20050;-41
2021/03/25 09:08:10;;;;;;;60.97;33.55;;;8.50;99.90;;;;;;12378244;28;19965;-42
2021/03/25 09:14:22;;;;;;;62.10;33.05;;;9.00;99.90;;;;;;12359025;28;20054;-41
2021/03/25 09:20:46;;;;;;;65.68;34.30;;;9.20;99.90;;;;;;12378934;28;20055;-42
2021/03/25 09:26:51;;;;;;;67.78;34.47;;;9.40;99.90;;;;;;12370504;28;20137;-43
2021/03/25 09:32:53;;;;;;;62.83;33.67;;;9.60;99.90;;;;;;12379061;28;20096;-42
2021/03/25 09:38:57;;;;;;;64.63;35.17;;;10.00;99.90;;;;;;12372373;28;20050;-43
2021/03/25 09:44:59;;;;;;;65.90;35.22;;;10.40;99.90;;;;;;12367630;28;20100;-41
2021/03/25 09:51:28;;;;;;;58.92;34.00;;;10.50;99.90;;;;;;12377874;28;20061;-42
2021/03/25 09:57:40;;;;;;;65.97;36.63;;;10.60;99.90;;;;;;12373428;28;20080;-42
2021/03/25 10:04:04;;;;;;;64.22;36.90;;;10.70;99.90;;;;;;12370934;28;20046;-42
2021/03/25 10:10:37;;;;;;;66.68;37.40;;;10.80;99.90;;;;;;12369895;28;20096;-42
2021/03/25 10:16:44;;;;;;;71.72;36.40;;;11.20;99.90;;;;;;12374680;28;20663;-43
2021/03/25 10:22:54;;;;;;;68.75;37.00;;;11.20;99.90;;;;;;12368956;28;20133;-44
2021/03/25 10:29:06;;;;;;;67.88;36.90;;;11.00;99.90;;;;;;12361997;28;20533;-42
2021/03/25 10:35:12;;;;;;;74.50;40.00;;;11.00;99.90;;;;;;12369077;28;20062;-41
2021/03/25 10:41:23;;;;;;;68.57;38.53;;;11.00;99.90;;;;;;12370074;28;20061;-43
2021/03/25 10:47:31;;;;;;;74.57;39.45;;;11.00;99.90;;;;;;12363234;28;20140;-41
2021/03/25 10:53:37;;;;;;;68.40;38.90;;;11.10;99.90;;;;;;12366640;28;20054;-42
2021/03/25 10:59:44;;;;;;;73.65;38.63;;;11.50;99.90;;;;;;12366791;28;20530;-42
2021/03/25 11:05:54;;;;;;;73.43;39.83;;;11.60;99.90;;;;;;12362818;28;20179;-42
2021/03/25 11:12:24;;;;;;;69.65;38.35;;;11.70;99.90;;;;;;12363425;28;20085;-42
2021/03/25 11:18:32;;;;;;;67.90;38.33;;;12.00;99.90;;;;;;12359707;28;20056;-43
2021/03/25 11:24:34;;;;;;;71.63;38.42;;;12.20;99.90;;;;;;12371454;28;20049;-42
2021/03/25 11:30:39;;;;;;;64.30;38.65;;;12.60;99.90;;;;;;12359344;28;20077;-42
2021/03/25 11:36:44;;;;;;;71.57;39.85;;;12.70;99.90;;;;;;12369271;28;20050;-42
2021/03/25 11:42:49;;;;;;;70.22;40.35;;;13.10;99.90;;;;;;12366678;28;20050;-41
2021/03/25 11:49:18;;;;;;;68.15;39.90;;;13.10;99.90;;;;;;12363677;28;20643;-43
2021/03/25 11:55:34;;;;;;;67.30;39.45;;;13.40;99.90;;;;;;12364111;28;20127;-42
2021/03/25 12:01:36;;;;;;;64.65;38.33;;;13.90;99.90;;;;;;12364492;28;20414;-42
2021/03/25 12:07:37;;;;;;;63.08;38.25;;;14.10;99.90;;;;;;12367837;28;20557;-42
2021/03/25 12:13:39;;;;;;;65.07;38.38;;;14.30;99.90;;;;;;12361513;28;20062;-43
2021/03/25 12:19:41;;;;;;;69.40;38.50;;;14.10;99.90;;;;;;12372833;28;20080;-42
2021/03/25 12:25:58;;;;;;;65.55;37.60;;;14.40;99.90;;;;;;12364965;28;20046;-44
2021/03/25 12:31:59;;;;;;;64.70;38.35;;;14.70;99.90;;;;;;12361086;28;20486;-44
2021/03/25 12:38:21;;;;;;;64.30;37.55;;;14.50;99.90;;;;;;12368457;28;20050;-42
2021/03/25 12:44:22;;;;;;;57.40;36.33;;;14.30;99.90;;;;;;12368696;28;20081;-43
2021/03/25 12:50:37;;;;;;;67.00;38.67;;;14.40;99.90;;;;;;12355620;28;20046;-43
2021/03/25 12:56:39;;;;;;;59.65;33.60;;;14.60;99.90;;;;;;12362749;28;20092;-43
2021/03/25 13:02:43;;;;;;;59.40;35.30;;;14.70;99.90;;;;;;12356203;28;20077;-42
2021/03/25 13:08:45;;;;;;;61.25;35.55;;;14.20;99.90;;;;;;12362212;28;20056;-42
2021/03/25 13:14:47;;;;;;;61.67;35.40;;;14.80;99.90;;;;;;12366318;28;20049;-42
2021/03/25 13:20:50;;;;;;;61.35;34.55;;;15.20;99.90;;;;;;12364866;28;20100;-42
2021/03/25 13:26:51;;;;;;;62.97;35.03;;;15.40;99.90;;;;;;12352816;28;20058;-43
2021/03/25 13:32:53;;;;;;;57.58;33.80;;;15.50;99.90;;;;;;12360378;28;20060;-42
2021/03/25 13:38:54;;;;;;;65.22;36.00;;;14.80;99.90;;;;;;12361662;28;20141;-42
2021/03/25 13:44:55;;;;;;;57.25;35.47;;;14.60;99.90;;;;;;12355988;28;20050;-42
2021/03/25 13:51:00;;;;;;;59.63;36.58;;;14.70;99.90;;;;;;12358919;28;20050;-42
2021/03/25 13:57:01;;;;;;;69.47;38.63;;;14.30;99.90;;;;;;12372096;28;20077;-42
2021/03/25 14:03:04;;;;;;;63.25;37.60;;;14.50;99.90;;;;;;12356729;28;20465;-43
2021/03/25 14:09:06;;;;;;;65.85;37.78;;;14.70;99.90;;;;;;12368028;28;20601;-43
2021/03/25 14:15:09;;;;;;;56.88;35.05;;;15.10;99.90;;;;;;12367224;28;20072;-42
2021/03/25 14:21:11;;;;;;;59.53;36.53;;;14.90;99.90;;;;;;12366089;28;20054;-43
2021/03/25 14:27:12;;;;;;;54.65;33.83;;;14.80;99.90;;;;;;12370302;28;20092;-42
2021/03/25 14:33:15;;;;;;;57.85;33.83;;;14.80;99.90;;;;;;12362155;28;20061;-43
2021/03/25 14:39:17;;;;;;;55.50;31.70;;;14.30;99.90;;;;;;12364437;28;20054;-42
2021/03/25 14:45:21;;;;;;;54.95;33.05;;;14.20;99.90;;;;;;12365036;28;20211;-43
2021/03/25 14:51:26;;;;;;;52.60;31.98;;;14.00;99.90;;;;;;12366973;28;20082;-42
2021/03/25 14:57:27;;;;;;;51.22;30.80;;;14.10;99.90;;;;;;12360413;28;20494;-43
2021/03/25 15:03:30;;;;;;;51.75;30.50;;;14.60;99.90;;;;;;12373475;28;20054;-42
2021/03/25 15:09:34;;;;;;;46.53;28.87;;;14.40;99.90;;;;;;12367990;28;20061;-43
2021/03/25 15:15:37;;;;;;;53.20;29.80;;;14.50;99.90;;;;;;12358262;28;20097;-42
2021/03/25 15:21:38;;;;;;;45.60;29.27;;;14.70;99.90;;;;;;12364033;28;20052;-41
2021/03/25 15:27:39;;;;;;;48.80;30.05;;;14.40;99.90;;;;;;12370858;28;20578;-43
2021/03/25 15:33:41;;;;;;;47.15;29.27;;;14.70;99.90;;;;;;12358910;28;20050;-42
2021/03/25 15:39:43;;;;;;;45.78;27.92;;;14.60;99.90;;;;;;12367514;28;20046;-42
2021/03/25 15:45:45;;;;;;;48.53;27.85;;;14.30;99.90;;;;;;12362493;28;20474;-42
2021/03/25 15:51:47;;;;;;;42.60;26.67;;;14.20;99.90;;;;;;12360525;28;20081;-42
2021/03/25 15:57:48;;;;;;;47.20;29.00;;;14.10;99.90;;;;;;12365278;28;20050;-42
2021/03/25 16:03:50;;;;;;;46.20;26.92;;;14.00;99.90;;;;;;12355653;28;20747;-42
2021/03/25 16:09:51;;;;;;;48.45;27.65;;;14.50;99.90;;;;;;12359457;28;20053;-42
2021/03/25 16:15:54;;;;;;;43.78;24.00;;;14.60;99.90;;;;;;12361255;28;20056;-42
2021/03/25 16:21:55;;;;;;;39.60;24.85;;;14.10;99.90;;;;;;12362698;28;20142;-42
2021/03/25 16:27:57;;;;;;;42.28;27.75;;;13.70;99.90;;;;;;12365019;28;20461;-42
2021/03/25 16:33:59;;;;;;;46.95;28.98;;;13.40;99.90;;;;;;12358371;28;20096;-43
2021/03/25 16:40:00;;;;;;;46.70;29.02;;;13.30;99.90;;;;;;12352286;28;20046;-42
2021/03/25 16:46:05;;;;;;;49.45;29.23;;;13.20;99.90;;;;;;12362081;28;20042;-43
2021/03/25 16:52:07;;;;;;;49.15;30.17;;;12.90;99.90;;;;;;12348107;28;21056;-42
2021/03/25 16:58:09;;;;;;;46.72;30.08;;;12.60;99.90;;;;;;12358547;28;20046;-42
2021/03/25 17:04:11;;;;;;;57.38;31.73;;;12.30;99.90;;;;;;12354593;28;20062;-42
2021/03/25 17:10:14;;;;;;;56.03;32.63;;;12.00;99.90;;;;;;12362626;28;20086;-42
2021/03/25 17:16:15;;;;;;;56.13;33.35;;;11.80;99.90;;;;;;12363862;28;20133;-42
2021/03/25 17:22:17;;;;;;;57.38;33.83;;;11.60;99.90;;;;;;12361643;28;20057;-43
2021/03/25 17:28:24;;;;;;;54.95;33.67;;;11.60;99.90;;;;;;12365189;28;20085;-42
2021/03/25 17:34:26;;;;;;;56.78;34.63;;;11.50;99.90;;;;;;12358607;28;20054;-42
2021/03/25 17:40:27;;;;;;;52.95;32.40;;;11.50;99.90;;;;;;12368395;28;20085;-43
2021/03/25 17:46:28;;;;;;;35.20;22.48;;;11.70;99.90;;;;;;12368209;28;20148;-44
2021/03/25 17:52:30;;;;;;;26.38;17.15;;;12.20;99.90;;;;;;12367677;28;20129;-41
2021/03/25 17:58:32;;;;;;;25.17;14.70;;;12.20;99.90;;;;;;12367549;28;20076;-42
2021/03/25 18:04:33;;;;;;;27.95;14.90;;;12.10;99.90;;;;;;12348902;28;20090;-41
2021/03/25 18:10:36;;;;;;;22.00;14.63;;;12.00;99.90;;;;;;12366777;28;20067;-42
2021/03/25 18:16:39;;;;;;;22.92;14.43;;;11.80;99.90;;;;;;12367126;28;20137;-42
2021/03/25 18:22:41;;;;;;;26.35;15.25;;;11.70;99.90;;;;;;12360182;28;20414;-42
2021/03/25 18:28:43;;;;;;;25.48;15.95;;;11.60;99.90;;;;;;12361593;28;20569;-42
2021/03/25 18:34:45;;;;;;;28.85;17.00;;;11.50;99.90;;;;;;12372673;28;20103;-45
2021/03/25 18:40:46;;;;;;;31.23;18.58;;;11.50;99.90;;;;;;12365609;28;20054;-42
2021/03/25 18:46:48;;;;;;;28.55;18.15;;;11.30;99.90;;;;;;12372752;28;20154;-42
2021/03/25 18:52:51;;;;;;;28.83;19.55;;;11.20;99.90;;;;;;12364343;28;20065;-42
2021/03/25 18:58:54;;;;;;;27.90;18.98;;;11.10;99.90;;;;;;12365641;28;20050;-42
2021/03/25 19:04:55;;;;;;;27.90;17.15;;;10.90;99.90;;;;;;12377104;28;20053;-42
2021/03/25 19:10:59;;;;;;;29.63;19.27;;;10.80;99.90;;;;;;12348270;28;20047;-42
2021/03/25 19:17:00;;;;;;;25.07;17.90;;;10.70;99.90;;;;;;12357154;28;20061;-41
2021/03/25 19:23:03;;;;;;;25.60;18.17;;;10.80;99.90;;;;;;12364908;28;20311;-42
2021/03/25 19:29:04;;;;;;;26.98;17.70;;;10.80;99.90;;;;;;12344665;28;20054;-46
2021/03/25 19:35:06;;;;;;;25.85;18.23;;;10.50;99.90;;;;;;12365549;28;20058;-41
2021/03/25 19:41:12;;;;;;;22.55;16.52;;;10.40;99.90;;;;;;12355361;28;20138;-42
2021/03/25 19:47:13;;;;;;;21.98;17.10;;;10.50;99.90;;;;;;12374736;28;20120;-42
2021/03/25 19:53:16;;;;;;;25.98;17.73;;;10.80;99.90;;;;;;12353715;28;20054;-43
2021/03/25 19:59:18;;;;;;;22.98;17.25;;;10.60;99.90;;;;;;12357044;28;20111;-42
2021/03/25 20:05:24;;;;;;;24.15;17.67;;;10.60;99.90;;;;;;12363372;28;20124;-48
2021/03/25 20:11:26;;;;;;;26.63;19.00;;;10.30;99.90;;;;;;12355304;28;20082;-42
2021/03/25 20:17:27;;;;;;;28.48;19.63;;;10.00;99.90;;;;;;12364053;28;20070;-42
2021/03/25 20:23:31;;;;;;;27.80;19.88;;;9.90;99.90;;;;;;12350584;28;20124;-42
2021/03/25 20:29:52;;;;;;;26.05;18.20;;;9.90;99.90;;;;;;12363966;28;20141;-42
2021/03/25 20:35:54;;;;;;;25.23;18.20;;;9.80;99.90;;;;;;12356646;28;20145;-42
2021/03/25 20:41:56;;;;;;;25.95;18.65;;;9.80;99.90;;;;;;12358428;28;20491;-42
2021/03/25 20:47:59;;;;;;;27.55;19.45;;;9.70;99.90;;;;;;12361399;28;20146;-43
2021/03/25 20:54:04;;;;;;;28.40;19.15;;;9.70;99.90;;;;;;12342741;28;20457;-42
2021/03/25 21:00:24;;;;;;;27.40;19.20;;;9.70;99.90;;;;;;12353753;28;20164;-44
2021/03/25 21:06:25;;;;;;;31.05;19.70;;;9.60;99.90;;;;;;12361666;28;20081;-42
2021/03/25 21:12:27;;;;;;;28.58;19.67;;;9.60;99.90;;;;;;12358427;28;20132;-44
2021/03/25 21:18:30;;;;;;;28.40;20.27;;;9.60;99.90;;;;;;12363666;28;20080;-41
2021/03/25 21:24:32;;;;;;;31.23;21.73;;;9.50;99.90;;;;;;12357504;28;20380;-42
2021/03/25 21:30:36;;;;;;;33.70;21.35;;;9.30;99.90;;;;;;12359038;28;20510;-41
2021/03/25 21:36:39;;;;;;;34.22;22.95;;;9.10;99.90;;;;;;12359156;28;20107;-42
2021/03/25 21:42:41;;;;;;;36.45;23.95;;;8.90;99.90;;;;;;12354893;28;20053;-42
2021/03/25 21:48:43;;;;;;;35.85;23.60;;;8.90;99.90;;;;;;12361273;28;20081;-42
2021/03/25 21:54:45;;;;;;;39.80;24.30;;;8.70;99.90;;;;;;12348355;28;20049;-41
2021/03/25 22:00:57;;;;;;;38.65;25.65;;;8.50;99.90;;;;;;12354095;28;20050;-43
2021/03/25 22:06:58;;;;;;;39.88;25.15;;;8.40;99.90;;;;;;12358259;28;20056;-43
2021/03/25 22:13:00;;;;;;;37.67;25.73;;;8.40;99.90;;;;;;12372345;28;20054;-41
2021/03/25 22:19:02;;;;;;;39.40;25.73;;;8.30;99.90;;;;;;12372062;28;20054;-41
2021/03/25 22:25:11;;;;;;;37.08;25.05;;;8.30;99.90;;;;;;12361830;28;20380;-42
2021/03/25 22:31:19;;;;;;;36.63;25.73;;;8.30;99.90;;;;;;12357814;28;21005;-41
2021/03/25 22:37:21;;;;;;;38.05;25.88;;;8.20;99.90;;;;;;12365472;28;20104;-41
2021/03/25 22:43:27;;;;;;;34.25;23.95;;;8.10;99.90;;;;;;12374619;28;20126;-42
2021/03/25 22:49:29;;;;;;;39.15;25.15;;;8.10;99.90;;;;;;12374001;28;20058;-42
2021/03/25 22:55:30;;;;;;;37.85;25.83;;;8.20;99.90;;;;;;12356386;28;20113;-42
2021/03/25 23:01:58;;;;;;;43.13;25.65;;;8.20;99.90;;;;;;12350945;28;20593;-41
2021/03/25 23:08:00;;;;;;;38.08;24.90;;;8.10;99.90;;;;;;12345128;28;20054;-41
2021/03/25 23:14:03;;;;;;;41.88;26.77;;;8.00;99.90;;;;;;12368607;28;20108;-41
2021/03/25 23:20:08;;;;;;;46.83;28.27;;;8.00;99.90;;;;;;12360322;28;20050;-42
2021/03/25 23:26:11;;;;;;;44.40;27.90;;;7.90;99.90;;;;;;12368505;28;20451;-41
2021/03/25 23:32:25;;;;;;;46.30;27.67;;;7.80;99.90;;;;;;12358366;28;20119;-44
2021/03/25 23:38:27;;;;;;;45.78;28.70;;;7.70;99.90;;;;;;12368292;28;20075;-41
2021/03/25 23:44:30;;;;;;;46.35;28.38;;;7.60;99.90;;;;;;12362688;28;20426;-41
2021/03/25 23:50:36;;;;;;;55.42;33.05;;;7.50;99.90;;;;;;12359734;28;20057;-41
2021/03/25 23:56:39;;;;;;;55.60;34.08;;;7.50;99.90;;;;;;12363082;28;20407;-41
